createdAt,value
2022-11-01T03:33:38.644Z,8.98
2022-11-01T03:36:13.495Z,12.75
2022-11-01T03:38:43.717Z,12.05
2022-11-01T03:41:13.471Z,9.40
2022-11-01T03:43:41.063Z,12.65
2022-11-01T03:46:09.073Z,11.20
2022-11-01T03:48:40.200Z,13.32
2022-11-01T03:51:07.367Z,14.50
2022-11-01T03:53:34.495Z,13.55
2022-11-01T03:56:01.725Z,9.98
2022-11-01T03:58:41.601Z,11.30
2022-11-01T04:01:09.720Z,7.70
2022-11-01T04:03:37.220Z,9.27
2022-11-01T04:06:05.195Z,10.00
2022-11-01T04:08:32.513Z,10.55
2022-11-01T04:10:59.833Z,13.00
2022-11-01T04:13:26.974Z,11.07
2022-11-01T04:16:12.808Z,9.90
2022-11-01T04:18:58.704Z,10.10
2022-11-01T04:21:26.944Z,11.88
2022-11-01T04:23:54.095Z,9.23
2022-11-01T04:26:24.318Z,9.82
2022-11-01T04:28:57.999Z,9.25
2022-11-01T04:31:34.009Z,12.55
2022-11-01T04:34:01.794Z,11.57
2022-11-01T04:36:28.908Z,11.05
2022-11-01T04:38:57.073Z,9.63
2022-11-01T04:41:25.346Z,9.80
2022-11-01T04:43:57.133Z,11.45
2022-11-01T04:46:24.355Z,14.52
2022-11-01T04:48:51.537Z,12.20
2022-11-01T04:51:18.662Z,12.27
2022-11-01T04:53:45.809Z,11.60
2022-11-01T04:56:13.892Z,12.65
2022-11-01T04:58:44.946Z,10.98
2022-11-01T05:01:14.587Z,13.07
2022-11-01T05:03:41.930Z,12.27
2022-11-01T05:06:09.123Z,13.60
2022-11-01T05:08:36.420Z,15.18
2022-11-01T05:11:03.557Z,18.98
2022-11-01T05:13:30.687Z,13.82
2022-11-01T05:18:45.079Z,17.15
2022-11-01T05:21:12.512Z,13.82
2022-11-01T05:23:39.751Z,16.65
2022-11-01T05:26:06.959Z,16.52
2022-11-01T05:28:34.874Z,16.20
2022-11-01T05:31:02.096Z,19.10
2022-11-01T05:33:29.275Z,18.85
2022-11-01T05:35:56.516Z,16.80
2022-11-01T05:38:23.630Z,21.98
2022-11-01T05:40:50.794Z,19.10
2022-11-01T05:43:18.033Z,19.02
2022-11-01T05:45:45.144Z,20.75
2022-11-01T05:48:12.312Z,20.27
2022-11-01T05:50:39.549Z,16.38
2022-11-01T05:53:10.472Z,20.40
2022-11-01T05:55:38.893Z,21.20
2022-11-01T05:58:06.709Z,17.02
2022-11-01T06:00:34.696Z,17.00
2022-11-01T06:03:02.342Z,17.08
2022-11-01T06:05:30.230Z,17.33
2022-11-01T06:07:57.495Z,17.77
2022-11-01T06:10:24.820Z,15.73
2022-11-01T06:12:51.994Z,14.65
2022-11-01T06:27:56.694Z,14.73
2022-11-01T06:30:23.843Z,17.92
2022-11-01T06:32:50.976Z,16.55
2022-11-01T06:35:18.187Z,16.63
2022-11-01T06:37:45.318Z,20.88
2022-11-01T06:40:13.076Z,14.80
2022-11-01T06:42:45.471Z,18.85
2022-11-01T06:45:13.840Z,16.80
2022-11-01T06:47:41.087Z,14.70
2022-11-01T06:50:08.405Z,13.68
2022-11-01T06:52:35.502Z,15.57
2022-11-01T06:55:02.738Z,17.33
2022-11-01T06:57:29.844Z,16.58
2022-11-01T06:59:58.356Z,18.95
2022-11-01T07:02:29.746Z,17.95
2022-11-01T07:04:57.233Z,18.95
2022-11-01T07:07:24.410Z,20.05
2022-11-01T07:09:51.578Z,19.30
2022-11-01T07:12:18.945Z,24.40
2022-11-01T07:14:46.057Z,22.65
2022-11-01T07:17:13.237Z,23.42
2022-11-01T07:19:40.348Z,22.27
2022-11-01T07:22:08.493Z,18.20
2022-11-01T07:24:35.764Z,24.20
2022-11-01T07:27:02.871Z,29.35
2022-11-01T07:29:29.979Z,21.88
2022-11-01T07:31:57.218Z,23.73
2022-11-01T07:34:24.331Z,20.70
2022-11-01T07:36:54.434Z,17.65
2022-11-01T07:39:21.608Z,18.20
2022-11-01T07:41:51.229Z,22.98
2022-11-01T07:44:18.477Z,14.23
2022-11-01T07:46:45.691Z,14.32
2022-11-01T07:49:12.796Z,13.10
2022-11-01T07:51:39.906Z,12.15
2022-11-01T07:54:07.098Z,14.05
2022-11-01T07:56:34.339Z,9.45
2022-11-01T07:59:01.487Z,9.95
2022-11-01T08:01:28.716Z,12.13
2022-11-01T08:03:55.970Z,9.45
2022-11-01T08:08:55.174Z,8.77
2022-11-01T08:11:22.272Z,9.63
2022-11-01T08:13:49.404Z,10.40
2022-11-01T08:16:18.301Z,7.28
2022-11-01T08:18:45.622Z,11.20
2022-11-01T08:21:18.740Z,12.70
2022-11-01T08:23:46.666Z,7.47
2022-11-01T08:26:14.196Z,11.88
2022-11-01T08:28:41.568Z,9.73
2022-11-01T08:31:09.475Z,10.60
2022-11-01T08:33:36.846Z,7.95
2022-11-01T08:36:04.196Z,11.85
2022-11-01T08:38:31.345Z,8.95
2022-11-01T08:41:00.299Z,9.27
2022-11-01T08:43:27.525Z,7.40
2022-11-01T08:45:54.639Z,6.88
2022-11-01T08:48:21.791Z,9.15
2022-11-01T08:50:49.621Z,10.73
2022-11-01T08:53:16.809Z,8.65
2022-11-01T08:55:44.117Z,9.23
2022-11-01T08:58:11.412Z,10.15
2022-11-01T09:00:38.614Z,6.45
2022-11-01T09:03:06.014Z,7.55
2022-11-01T09:05:33.287Z,7.10
2022-11-01T09:08:01.546Z,7.50
2022-11-01T09:10:30.887Z,9.00
2022-11-01T09:12:59.030Z,6.10
2022-11-01T09:15:26.564Z,9.45
2022-11-01T09:17:53.695Z,7.60
2022-11-01T09:20:20.978Z,7.40
2022-11-01T09:22:51.035Z,6.45
2022-11-01T09:25:18.192Z,9.45
2022-11-01T09:27:45.478Z,5.40
2022-11-01T09:30:12.715Z,8.95
2022-11-01T09:32:39.821Z,8.32
2022-11-01T09:35:07.494Z,8.77
2022-11-01T09:37:34.715Z,10.52
2022-11-01T09:40:03.342Z,5.97
2022-11-01T09:42:34.454Z,6.32
2022-11-01T09:45:05.277Z,7.18
2022-11-01T09:47:34.004Z,8.93
2022-11-01T09:50:16.540Z,5.88
2022-11-01T09:52:43.824Z,5.75
2022-11-01T09:55:15.826Z,7.07
2022-11-01T09:57:46.074Z,7.13
2022-11-01T10:00:16.271Z,9.88
2022-11-01T10:03:01.811Z,5.35
2022-11-01T10:05:28.954Z,6.53
2022-11-01T10:08:02.226Z,7.90
2022-11-01T10:10:33.946Z,7.70
2022-11-01T10:13:21.170Z,6.40
2022-11-01T10:15:57.131Z,13.52
2022-11-01T10:18:38.091Z,7.40
2022-11-01T10:21:06.940Z,5.80
2022-11-01T10:23:45.122Z,7.47
2022-11-01T10:26:21.759Z,8.02
2022-11-01T10:28:52.721Z,5.47
2022-11-01T10:31:23.024Z,8.85
2022-11-01T10:34:00.146Z,7.85
2022-11-01T10:36:34.339Z,9.73
2022-11-01T10:39:53.324Z,6.15
2022-11-01T10:42:10.364Z,6.43
2022-11-01T10:44:41.453Z,8.23
2022-11-01T10:47:12.811Z,4.30
2022-11-01T10:50:04.904Z,5.80
2022-11-01T10:52:34.738Z,8.32
2022-11-01T10:55:03.045Z,8.88
2022-11-01T10:57:36.177Z,8.50
2022-11-01T11:00:06.402Z,8.27
2022-11-01T11:02:41.211Z,6.90
2022-11-01T11:05:08.540Z,9.02
2022-11-01T11:07:35.751Z,6.63
2022-11-01T11:10:03.631Z,7.38
2022-11-01T11:12:31.913Z,10.10
2022-11-01T11:15:03.776Z,8.80
2022-11-01T11:17:35.931Z,8.95
2022-11-01T11:20:04.958Z,8.20
2022-11-01T11:22:37.264Z,7.90
2022-11-01T11:25:04.764Z,8.35
2022-11-01T11:27:35.765Z,8.88
2022-11-01T11:32:34.200Z,9.50
2022-11-01T11:35:16.846Z,10.25
2022-11-01T11:38:03.453Z,8.55
2022-11-01T11:40:43.100Z,6.88
2022-11-01T11:43:21.414Z,8.27
2022-11-01T11:46:07.423Z,8.35
2022-11-01T11:48:34.552Z,11.57
2022-11-01T11:51:06.136Z,8.52
2022-11-01T11:53:34.105Z,10.98
2022-11-01T11:56:06.574Z,7.28
2022-11-01T11:58:33.679Z,7.30
2022-11-01T12:01:12.408Z,9.10
2022-11-01T12:03:47.984Z,9.63
2022-11-01T12:06:25.787Z,7.85
2022-11-01T12:08:54.465Z,12.57
2022-11-01T12:11:23.169Z,9.50
2022-11-01T12:14:03.979Z,9.07
2022-11-01T12:16:31.178Z,10.43
2022-11-01T12:18:59.726Z,11.43
2022-11-01T12:21:30.141Z,9.55
2022-11-01T12:23:58.775Z,9.88
2022-11-01T12:26:26.990Z,13.48
2022-11-01T12:28:58.753Z,9.55
2022-11-01T12:31:31.063Z,10.63
2022-11-01T12:34:03.692Z,10.55
2022-11-01T12:36:43.745Z,11.65
2022-11-01T12:39:16.971Z,14.02
2022-11-01T12:41:45.483Z,13.98
2022-11-01T12:44:29.845Z,10.25
2022-11-01T12:46:59.980Z,9.30
2022-11-01T12:49:46.203Z,10.18
2022-11-01T12:52:23.642Z,9.18
2022-11-01T12:55:09.404Z,9.98
2022-11-01T12:57:36.964Z,8.50
2022-11-01T13:00:05.800Z,10.38
2022-11-01T13:02:39.015Z,11.05
2022-11-01T13:05:29.218Z,12.05
2022-11-01T13:08:06.811Z,11.30
2022-11-01T13:10:35.809Z,23.73
2022-11-01T13:13:06.160Z,16.73
2022-11-01T13:15:33.642Z,15.35
2022-11-01T13:18:33.586Z,10.25
2022-11-01T13:21:01.120Z,13.15
2022-11-01T13:23:38.472Z,8.93
2022-11-01T13:26:14.789Z,9.13
2022-11-01T13:28:44.731Z,10.23
2022-11-01T13:31:24.689Z,8.93
2022-11-01T13:34:06.813Z,12.00
2022-11-01T13:36:40.912Z,6.93
2022-11-01T13:39:19.299Z,10.95
2022-11-01T13:42:02.055Z,9.18
2022-11-01T13:44:31.314Z,12.25
2022-11-01T13:47:24.623Z,11.23
2022-11-01T13:49:57.024Z,8.10
2022-11-01T13:52:28.763Z,9.27
2022-11-01T13:54:55.856Z,8.52
2022-11-01T13:57:25.716Z,9.98
2022-11-01T13:59:57.399Z,9.68
2022-11-01T14:02:24.795Z,10.90
2022-11-01T14:04:55.332Z,10.18
2022-11-01T14:07:24.175Z,11.63
2022-11-01T14:09:52.710Z,13.15
2022-11-01T14:12:43.434Z,13.30
2022-11-01T14:15:15.997Z,11.95
2022-11-01T14:17:55.989Z,12.80
2022-11-01T14:20:26.247Z,12.70
2022-11-01T14:22:54.324Z,13.73
2022-11-01T14:25:24.707Z,16.02
2022-11-01T14:28:11.792Z,13.40
2022-11-01T14:30:42.437Z,13.90
2022-11-01T14:33:12.897Z,10.73
2022-11-01T14:35:43.815Z,16.05
2022-11-01T14:38:18.454Z,14.40
2022-11-01T14:40:58.816Z,16.27
2022-11-01T14:43:41.040Z,14.45
2022-11-01T14:46:16.891Z,15.35
2022-11-01T14:48:47.104Z,15.38
2022-11-01T14:51:20.121Z,14.68
2022-11-01T14:53:48.608Z,18.83
2022-11-01T14:56:17.121Z,26.20
2022-11-01T14:58:44.666Z,24.83
2022-11-01T15:01:19.320Z,28.83
2022-11-01T15:03:55.799Z,29.30
2022-11-01T15:06:27.626Z,26.80
2022-11-01T15:09:03.856Z,28.65
2022-11-01T15:11:31.775Z,24.83
2022-11-01T15:14:00.356Z,18.45
2022-11-01T15:16:28.967Z,20.05
2022-11-01T15:19:02.333Z,14.45
2022-11-01T15:21:31.391Z,13.20
2022-11-01T15:23:59.158Z,14.93
2022-11-01T15:26:27.732Z,14.10
2022-11-01T15:28:54.938Z,16.25
2022-11-01T15:31:22.566Z,12.15
2022-11-01T15:34:03.784Z,12.32
2022-11-01T15:36:40.194Z,12.43
2022-11-01T15:39:18.896Z,12.15
2022-11-01T15:41:46.707Z,12.63
2022-11-01T15:44:21.669Z,12.05
2022-11-01T15:46:49.788Z,11.25
2022-11-01T15:49:32.624Z,12.32
2022-11-01T15:52:05.872Z,15.65
2022-11-01T15:54:41.955Z,10.82
2022-11-01T15:57:14.523Z,14.30
2022-11-01T16:00:05.654Z,13.50
2022-11-01T16:02:43.144Z,12.07
2022-11-01T16:05:12.517Z,14.30
2022-11-01T16:07:40.999Z,14.35
2022-11-01T16:10:09.394Z,13.85
2022-11-01T16:12:38.674Z,10.60
2022-11-01T16:15:19.887Z,12.57
2022-11-01T16:17:47.172Z,19.73
2022-11-01T16:20:31.890Z,16.85
2022-11-01T16:23:03.257Z,15.18
2022-11-01T16:25:31.788Z,15.35
2022-11-01T16:28:02.250Z,17.75
2022-11-01T16:30:37.892Z,20.25
2022-11-01T16:33:28.033Z,29.55
2022-11-01T16:35:56.642Z,19.30
2022-11-01T16:38:25.080Z,28.73
2022-11-01T16:40:54.878Z,15.57
2022-11-01T16:43:22.837Z,24.98
2022-11-01T16:45:50.691Z,30.10
2022-11-01T16:48:25.613Z,21.63
2022-11-01T16:50:53.688Z,29.27
2022-11-01T16:53:21.558Z,31.40
2022-11-01T16:55:49.230Z,23.10
2022-11-01T16:58:18.025Z,30.30
2022-11-01T17:00:51.819Z,32.42
2022-11-01T17:03:19.066Z,22.15
2022-11-01T17:05:47.016Z,21.23
2022-11-01T17:08:14.974Z,22.80
2022-11-01T17:10:42.479Z,23.80
2022-11-01T17:13:09.646Z,18.48
2022-11-01T17:15:41.119Z,21.65
2022-11-01T17:18:12.447Z,26.38
2022-11-01T17:20:40.999Z,25.85
2022-11-01T17:23:15.594Z,39.75
2022-11-01T17:25:46.388Z,37.35
2022-11-01T17:28:13.789Z,32.83
2022-11-01T17:30:40.938Z,35.85
2022-11-01T17:33:08.116Z,36.05
2022-11-01T17:35:35.708Z,35.90
2022-11-01T17:38:03.086Z,37.20
2022-11-01T17:40:30.614Z,36.47
2022-11-01T17:42:58.552Z,38.03
2022-11-01T17:45:26.157Z,40.42
2022-11-01T17:47:54.486Z,46.47
2022-11-01T17:50:22.134Z,40.55
2022-11-01T17:52:49.320Z,42.05
2022-11-01T17:55:16.919Z,47.38
2022-11-01T17:57:44.096Z,42.97
2022-11-01T18:00:11.927Z,40.03
2022-11-01T18:02:39.303Z,38.72
2022-11-01T18:05:07.155Z,39.85
2022-11-01T18:07:40.514Z,45.90
2022-11-01T18:10:18.078Z,37.65
2022-11-01T18:13:08.297Z,42.38
2022-11-01T18:15:38.144Z,40.53
2022-11-01T18:18:20.106Z,42.47
2022-11-01T18:20:53.032Z,46.58
2022-11-01T18:23:20.319Z,41.92
2022-11-01T18:25:48.639Z,44.28
2022-11-01T18:28:19.042Z,38.35
2022-11-01T18:30:56.926Z,36.60
2022-11-01T18:33:32.913Z,35.72
2022-11-01T18:36:05.116Z,36.97
2022-11-01T18:38:38.485Z,34.10
2022-11-01T18:41:10.659Z,35.58
2022-11-01T18:43:40.116Z,31.65
2022-11-01T18:46:25.131Z,31.33
2022-11-01T18:48:59.767Z,30.63
2022-11-01T18:51:31.905Z,30.17
2022-11-01T18:54:12.584Z,33.08
2022-11-01T18:56:40.954Z,32.80
2022-11-01T18:59:15.842Z,33.40
2022-11-01T19:01:44.096Z,32.30
2022-11-01T19:04:20.752Z,40.92
2022-11-01T19:06:48.619Z,42.53
2022-11-01T19:09:27.699Z,45.50
2022-11-01T19:12:11.444Z,43.08
2022-11-01T19:14:40.112Z,54.97
2022-11-01T19:17:12.493Z,59.10
2022-11-01T19:19:42.760Z,53.17
2022-11-01T19:22:25.352Z,65.00
2022-11-01T19:24:52.564Z,49.95
2022-11-01T19:27:21.735Z,50.97
2022-11-01T19:29:53.965Z,44.97
2022-11-01T19:32:25.227Z,46.85
2022-11-01T19:34:53.584Z,43.30
2022-11-01T19:37:24.757Z,34.35
2022-11-01T19:39:52.171Z,40.55
2022-11-01T19:42:29.812Z,34.95
2022-11-01T19:45:03.347Z,40.03
2022-11-01T19:47:34.892Z,36.38
2022-11-01T19:50:02.281Z,37.67
2022-11-01T19:52:36.983Z,34.75
2022-11-01T19:55:24.884Z,33.67
2022-11-01T19:57:52.116Z,31.52
2022-11-01T20:00:20.235Z,32.53
2022-11-01T20:02:48.576Z,30.77
2022-11-01T20:05:24.761Z,31.17
2022-11-01T20:07:52.114Z,30.73
2022-11-01T20:10:19.330Z,24.05
2022-11-01T20:12:46.585Z,24.85
2022-11-01T20:15:13.908Z,28.38
2022-11-01T20:17:41.055Z,26.58
2022-11-01T20:20:08.669Z,26.33
2022-11-01T20:22:35.834Z,23.65
2022-11-01T20:25:02.992Z,25.30
2022-11-01T20:27:30.233Z,28.80
2022-11-01T20:29:57.474Z,21.17
2022-11-01T20:32:24.628Z,23.05
2022-11-01T20:34:52.601Z,24.27
2022-11-01T20:37:28.422Z,17.65
2022-11-01T20:39:56.201Z,18.58
2022-11-01T20:42:24.266Z,24.30
2022-11-01T20:44:52.018Z,18.98
2022-11-01T20:47:19.339Z,20.58
2022-11-01T20:49:46.450Z,17.42
2022-11-01T20:52:38.024Z,19.88
2022-11-01T20:55:00.736Z,24.40
2022-11-01T20:57:28.769Z,23.75
2022-11-01T20:59:56.137Z,20.02
2022-11-01T21:02:23.864Z,20.05
2022-11-01T21:04:53.754Z,21.08
2022-11-01T21:07:20.984Z,19.83
2022-11-01T21:09:51.752Z,25.75
2022-11-01T21:12:37.371Z,22.13
2022-11-01T21:15:19.889Z,21.30
2022-11-01T21:17:47.183Z,28.40
2022-11-01T21:20:23.123Z,23.95
2022-11-01T21:22:53.727Z,24.25
2022-11-01T21:25:23.463Z,29.88
2022-11-01T21:27:50.594Z,27.73
2022-11-01T21:30:19.842Z,27.77
2022-11-01T21:32:47.470Z,26.38
2022-11-01T21:35:20.692Z,29.85
2022-11-01T21:37:53.135Z,36.25
2022-11-01T21:40:29.203Z,30.85
2022-11-01T21:42:57.367Z,42.03
2022-11-01T21:45:30.681Z,40.20
2022-11-01T21:48:02.218Z,41.35
2022-11-01T21:50:29.699Z,34.70
2022-11-01T21:52:56.865Z,39.30
2022-11-01T21:55:24.051Z,41.63
2022-11-01T21:57:51.153Z,49.70
2022-11-01T22:00:18.280Z,49.63
2022-11-01T22:02:45.703Z,48.60
2022-11-01T22:05:12.941Z,37.90
2022-11-01T22:07:40.062Z,42.50
2022-11-01T22:10:07.533Z,38.38
2022-11-01T22:12:34.664Z,41.50
2022-11-01T22:15:02.020Z,43.92
2022-11-01T22:17:29.286Z,40.53
2022-11-01T22:19:56.416Z,40.85
2022-11-01T22:22:23.628Z,36.10
2022-11-01T22:24:50.896Z,41.33
2022-11-01T22:27:18.113Z,39.47
2022-11-01T22:29:45.227Z,35.83
2022-11-01T22:32:12.438Z,33.28
2022-11-01T22:34:39.587Z,40.83
2022-11-01T22:37:13.724Z,39.45
2022-11-01T22:39:40.883Z,38.40
2022-11-01T22:42:14.918Z,42.58
2022-11-01T22:44:44.877Z,38.90
2022-11-01T22:47:30.655Z,38.92
2022-11-01T22:49:58.969Z,39.53
2022-11-01T22:52:31.834Z,43.55
2022-11-01T22:55:04.811Z,46.67
2022-11-01T22:57:34.206Z,40.95
2022-11-01T23:00:22.042Z,49.67
2022-11-01T23:02:49.421Z,37.20
2022-11-01T23:05:24.183Z,36.85
2022-11-01T23:07:53.151Z,46.78
2022-11-01T23:10:46.534Z,38.47
2022-11-01T23:13:35.974Z,39.33
2022-11-01T23:16:04.497Z,40.65
2022-11-01T23:18:33.668Z,63.10
2022-11-01T23:21:06.908Z,45.15
2022-11-01T23:23:43.716Z,38.97
2022-11-01T23:26:12.272Z,42.75
2022-11-01T23:28:43.687Z,51.45
2022-11-01T23:31:11.616Z,39.90
2022-11-01T23:33:43.244Z,43.67
2022-11-01T23:36:22.250Z,44.28
2022-11-01T23:38:51.977Z,43.05
2022-11-01T23:41:24.120Z,36.40
2022-11-01T23:43:52.810Z,44.03
2022-11-01T23:46:20.377Z,37.75
2022-11-01T23:48:48.151Z,37.35
2022-11-01T23:51:18.608Z,35.97
2022-11-01T23:53:46.850Z,38.30
2022-11-01T23:56:15.032Z,43.28
2022-11-01T23:58:42.289Z,33.28
